sensor_id;sensor_type;location;lat;lon;timestamp;P1;durP1;ratioP1;P2;durP2;ratioP2
9997;SDS011;5038;53.064;8.624;2023-04-01T00:00:52;14.43;;;13.13;;
9997;SDS011;5038;53.064;8.624;2023-04-01T00:03:23;15.07;;;13.57;;
9997;SDS011;5038;53.064;8.624;2023-04-01T00:05:53;14.70;;;13.20;;
9997;SDS011;5038;53.064;8.624;2023-04-01T00:08:22;14.73;;;13.27;;
9997;SDS011;5038;53.064;8.624;2023-04-01T00:10:50;13.60;;;12.30;;
9997;SDS011;5038;53.064;8.624;2023-04-01T00:13:19;14.70;;;13.30;;
9997;SDS011;5038;53.064;8.624;2023-04-01T00:15:47;14.07;;;12.73;;
9997;SDS011;5038;53.064;8.624;2023-04-01T00:18:16;15.30;;;13.70;;
9997;SDS011;5038;53.064;8.624;2023-04-01T00:20:46;15.97;;;14.47;;
9997;SDS011;5038;53.064;8.624;2023-04-01T00:23:15;13.10;;;11.80;;
9997;SDS011;5038;53.064;8.624;2023-04-01T00:25:43;15.10;;;13.60;;
9997;SDS011;5038;53.064;8.624;2023-04-01T00:28:14;15.33;;;13.93;;
9997;SDS011;5038;53.064;8.624;2023-04-01T00:30:42;15.20;;;13.43;;
9997;SDS011;5038;53.064;8.624;2023-04-01T00:33:10;15.77;;;14.13;;
9997;SDS011;5038;53.064;8.624;2023-04-01T00:35:38;14.87;;;13.47;;
9997;SDS011;5038;53.064;8.624;2023-04-01T00:38:09;15.60;;;14.20;;
9997;SDS011;5038;53.064;8.624;2023-04-01T00:40:39;16.43;;;14.83;;
9997;SDS011;5038;53.064;8.624;2023-04-01T00:43:10;14.70;;;13.07;;
9997;SDS011;5038;53.064;8.624;2023-04-01T00:45:41;16.93;;;15.13;;
9997;SDS011;5038;53.064;8.624;2023-04-01T00:48:11;16.27;;;14.67;;
9997;SDS011;5038;53.064;8.624;2023-04-01T00:50:44;15.57;;;14.07;;
9997;SDS011;5038;53.064;8.624;2023-04-01T00:53:17;15.20;;;13.80;;
9997;SDS011;5038;53.064;8.624;2023-04-01T00:55:49;16.30;;;14.80;;
9997;SDS011;5038;53.064;8.624;2023-04-01T00:58:20;15.20;;;13.70;;
9997;SDS011;5038;53.064;8.624;2023-04-01T01:00:51;15.47;;;14.03;;
9997;SDS011;5038;53.064;8.624;2023-04-01T01:03:21;15.83;;;14.37;;
9997;SDS011;5038;53.064;8.624;2023-04-01T01:05:53;15.90;;;14.40;;
9997;SDS011;5038;53.064;8.624;2023-04-01T01:08:38;16.50;;;15.00;;
9997;SDS011;5038;53.064;8.624;2023-04-01T01:11:21;17.10;;;15.40;;
9997;SDS011;5038;53.064;8.624;2023-04-01T01:14:04;16.33;;;14.83;;
9997;SDS011;5038;53.064;8.624;2023-04-01T01:16:47;16.67;;;14.57;;
9997;SDS011;5038;53.064;8.624;2023-04-01T01:19:33;16.73;;;15.20;;
9997;SDS011;5038;53.064;8.624;2023-04-01T01:22:21;16.70;;;15.17;;
9997;SDS011;5038;53.064;8.624;2023-04-01T01:25:20;17.30;;;15.70;;
9997;SDS011;5038;53.064;8.624;2023-04-01T01:28:01;16.70;;;15.00;;
9997;SDS011;5038;53.064;8.624;2023-04-01T01:30:44;18.43;;;16.43;;
9997;SDS011;5038;53.064;8.624;2023-04-01T01:36:19;17.60;;;15.90;;
9997;SDS011;5038;53.064;8.624;2023-04-01T01:38:49;17.53;;;15.73;;
9997;SDS011;5038;53.064;8.624;2023-04-01T01:41:18;17.50;;;15.80;;
9997;SDS011;5038;53.064;8.624;2023-04-01T01:43:49;16.63;;;15.13;;
9997;SDS011;5038;53.064;8.624;2023-04-01T01:46:22;18.23;;;16.50;;
9997;SDS011;5038;53.064;8.624;2023-04-01T01:48:52;16.90;;;15.30;;
9997;SDS011;5038;53.064;8.624;2023-04-01T01:51:24;17.00;;;15.43;;
9997;SDS011;5038;53.064;8.624;2023-04-01T01:53:54;16.93;;;15.33;;
9997;SDS011;5038;53.064;8.624;2023-04-01T01:56:24;16.10;;;14.73;;
9997;SDS011;5038;53.064;8.624;2023-04-01T01:58:55;17.70;;;15.93;;
9997;SDS011;5038;53.064;8.624;2023-04-01T02:01:28;18.50;;;16.80;;
9997;SDS011;5038;53.064;8.624;2023-04-01T02:04:07;18.00;;;16.07;;
9997;SDS011;5038;53.064;8.624;2023-04-01T02:06:39;17.37;;;15.80;;
9997;SDS011;5038;53.064;8.624;2023-04-01T02:09:13;16.77;;;15.17;;
9997;SDS011;5038;53.064;8.624;2023-04-01T02:11:42;17.67;;;16.00;;
9997;SDS011;5038;53.064;8.624;2023-04-01T02:14:15;16.80;;;15.17;;
9997;SDS011;5038;53.064;8.624;2023-04-01T02:16:47;16.80;;;15.20;;
9997;SDS011;5038;53.064;8.624;2023-04-01T02:19:19;17.40;;;15.60;;
9997;SDS011;5038;53.064;8.624;2023-04-01T02:21:53;17.30;;;15.70;;
9997;SDS011;5038;53.064;8.624;2023-04-01T02:24:24;17.30;;;15.57;;
9997;SDS011;5038;53.064;8.624;2023-04-01T02:26:55;16.43;;;14.83;;
9997;SDS011;5038;53.064;8.624;2023-04-01T02:29:24;17.77;;;16.10;;
9997;SDS011;5038;53.064;8.624;2023-04-01T02:31:53;15.93;;;14.40;;
9997;SDS011;5038;53.064;8.624;2023-04-01T02:34:22;16.60;;;15.00;;
9997;SDS011;5038;53.064;8.624;2023-04-01T02:36:53;17.23;;;15.53;;
9997;SDS011;5038;53.064;8.624;2023-04-01T02:39:23;16.67;;;15.07;;
9997;SDS011;5038;53.064;8.624;2023-04-01T02:41:52;12.63;;;11.30;;
9997;SDS011;5038;53.064;8.624;2023-04-01T02:44:21;17.63;;;16.03;;
9997;SDS011;5038;53.064;8.624;2023-04-01T02:46:49;13.87;;;12.57;;
9997;SDS011;5038;53.064;8.624;2023-04-01T02:49:19;16.37;;;14.87;;
9997;SDS011;5038;53.064;8.624;2023-04-01T02:51:47;17.77;;;16.03;;
9997;SDS011;5038;53.064;8.624;2023-04-01T02:54:16;17.20;;;15.70;;
9997;SDS011;5038;53.064;8.624;2023-04-01T02:56:44;15.50;;;14.00;;
9997;SDS011;5038;53.064;8.624;2023-04-01T02:59:12;17.33;;;15.53;;
9997;SDS011;5038;53.064;8.624;2023-04-01T03:01:41;16.90;;;15.30;;
9997;SDS011;5038;53.064;8.624;2023-04-01T03:04:09;18.23;;;16.43;;
9997;SDS011;5038;53.064;8.624;2023-04-01T03:06:37;17.03;;;15.53;;
9997;SDS011;5038;53.064;8.624;2023-04-01T03:09:05;17.27;;;15.67;;
9997;SDS011;5038;53.064;8.624;2023-04-01T03:11:34;16.10;;;14.60;;
9997;SDS011;5038;53.064;8.624;2023-04-01T03:14:02;16.63;;;14.93;;
9997;SDS011;5038;53.064;8.624;2023-04-01T03:16:31;15.40;;;13.90;;
9997;SDS011;5038;53.064;8.624;2023-04-01T03:18:59;15.23;;;13.73;;
9997;SDS011;5038;53.064;8.624;2023-04-01T03:21:29;16.30;;;14.80;;
9997;SDS011;5038;53.064;8.624;2023-04-01T03:23:57;15.87;;;14.33;;
9997;SDS011;5038;53.064;8.624;2023-04-01T03:26:25;15.20;;;13.83;;
9997;SDS011;5038;53.064;8.624;2023-04-01T03:28:55;16.03;;;14.50;;
9997;SDS011;5038;53.064;8.624;2023-04-01T03:31:23;16.37;;;14.70;;
9997;SDS011;5038;53.064;8.624;2023-04-01T03:33:55;15.50;;;14.10;;
9997;SDS011;5038;53.064;8.624;2023-04-01T03:36:23;15.73;;;14.20;;
9997;SDS011;5038;53.064;8.624;2023-04-01T03:38:51;17.03;;;14.60;;
9997;SDS011;5038;53.064;8.624;2023-04-01T03:41:29;15.93;;;14.33;;
9997;SDS011;5038;53.064;8.624;2023-04-01T03:44:00;15.93;;;14.43;;
9997;SDS011;5038;53.064;8.624;2023-04-01T03:46:28;15.27;;;13.67;;
9997;SDS011;5038;53.064;8.624;2023-04-01T03:48:56;15.07;;;13.57;;
9997;SDS011;5038;53.064;8.624;2023-04-01T03:51:24;15.40;;;14.00;;
9997;SDS011;5038;53.064;8.624;2023-04-01T03:53:53;16.50;;;15.00;;
9997;SDS011;5038;53.064;8.624;2023-04-01T03:56:21;15.40;;;14.00;;
9997;SDS011;5038;53.064;8.624;2023-04-01T03:58:49;15.33;;;13.87;;
9997;SDS011;5038;53.064;8.624;2023-04-01T04:01:19;15.20;;;13.43;;
9997;SDS011;5038;53.064;8.624;2023-04-01T04:03:52;15.73;;;14.23;;
9997;SDS011;5038;53.064;8.624;2023-04-01T04:06:21;15.27;;;13.83;;
9997;SDS011;5038;53.064;8.624;2023-04-01T04:08:51;15.43;;;13.93;;
9997;SDS011;5038;53.064;8.624;2023-04-01T04:11:20;15.20;;;13.63;;
9997;SDS011;5038;53.064;8.624;2023-04-01T04:13:51;19.37;;;17.57;;
9997;SDS011;5038;53.064;8.624;2023-04-01T04:16:22;17.77;;;15.60;;
9997;SDS011;5038;53.064;8.624;2023-04-01T04:18:58;15.30;;;14.00;;
9997;SDS011;5038;53.064;8.624;2023-04-01T04:21:26;16.83;;;15.30;;
9997;SDS011;5038;53.064;8.624;2023-04-01T04:23:54;15.70;;;14.20;;
9997;SDS011;5038;53.064;8.624;2023-04-01T04:26:22;14.70;;;13.40;;
9997;SDS011;5038;53.064;8.624;2023-04-01T04:28:59;14.47;;;13.17;;
9997;SDS011;5038;53.064;8.624;2023-04-01T04:31:31;14.23;;;12.87;;
9997;SDS011;5038;53.064;8.624;2023-04-01T04:34:00;13.67;;;12.47;;
9997;SDS011;5038;53.064;8.624;2023-04-01T04:36:32;15.03;;;13.60;;
9997;SDS011;5038;53.064;8.624;2023-04-01T04:39:01;14.57;;;13.13;;
9997;SDS011;5038;53.064;8.624;2023-04-01T04:41:31;14.73;;;13.40;;
9997;SDS011;5038;53.064;8.624;2023-04-01T04:44:02;14.27;;;12.83;;
9997;SDS011;5038;53.064;8.624;2023-04-01T04:46:32;21.80;;;19.50;;
9997;SDS011;5038;53.064;8.624;2023-04-01T04:49:10;15.73;;;13.97;;
9997;SDS011;5038;53.064;8.624;2023-04-01T04:51:38;14.30;;;12.90;;
9997;SDS011;5038;53.064;8.624;2023-04-01T04:54:07;14.60;;;13.10;;
9997;SDS011;5038;53.064;8.624;2023-04-01T04:56:53;14.20;;;12.80;;
9997;SDS011;5038;53.064;8.624;2023-04-01T04:59:24;11.93;;;10.83;;
9997;SDS011;5038;53.064;8.624;2023-04-01T05:02:16;12.50;;;11.20;;
9997;SDS011;5038;53.064;8.624;2023-04-01T05:04:44;17.80;;;12.47;;
9997;SDS011;5038;53.064;8.624;2023-04-01T05:07:12;13.40;;;12.10;;
9997;SDS011;5038;53.064;8.624;2023-04-01T05:09:40;12.43;;;11.33;;
9997;SDS011;5038;53.064;8.624;2023-04-01T05:12:08;13.37;;;12.07;;
9997;SDS011;5038;53.064;8.624;2023-04-01T05:14:59;13.57;;;11.60;;
9997;SDS011;5038;53.064;8.624;2023-04-01T05:17:30;13.03;;;11.57;;
9997;SDS011;5038;53.064;8.624;2023-04-01T05:19:59;12.43;;;11.17;;
9997;SDS011;5038;53.064;8.624;2023-04-01T05:22:28;12.73;;;11.63;;
9997;SDS011;5038;53.064;8.624;2023-04-01T05:24:56;13.23;;;11.83;;
9997;SDS011;5038;53.064;8.624;2023-04-01T05:27:25;13.13;;;11.93;;
9997;SDS011;5038;53.064;8.624;2023-04-01T05:29:53;13.13;;;11.93;;
9997;SDS011;5038;53.064;8.624;2023-04-01T05:32:38;11.60;;;10.50;;
9997;SDS011;5038;53.064;8.624;2023-04-01T05:35:07;12.20;;;11.10;;
9997;SDS011;5038;53.064;8.624;2023-04-01T05:37:35;13.60;;;12.30;;
9997;SDS011;5038;53.064;8.624;2023-04-01T05:40:04;12.30;;;11.20;;
9997;SDS011;5038;53.064;8.624;2023-04-01T05:42:33;12.47;;;11.17;;
9997;SDS011;5038;53.064;8.624;2023-04-01T05:45:04;10.43;;;9.43;;
9997;SDS011;5038;53.064;8.624;2023-04-01T05:47:54;11.53;;;10.43;;
9997;SDS011;5038;53.064;8.624;2023-04-01T05:50:22;10.70;;;9.67;;
9997;SDS011;5038;53.064;8.624;2023-04-01T05:52:51;11.33;;;9.80;;
9997;SDS011;5038;53.064;8.624;2023-04-01T05:55:20;10.30;;;9.40;;
9997;SDS011;5038;53.064;8.624;2023-04-01T05:57:49;10.77;;;9.77;;
9997;SDS011;5038;53.064;8.624;2023-04-01T06:00:18;10.37;;;9.40;;
9997;SDS011;5038;53.064;8.624;2023-04-01T06:02:47;11.10;;;9.37;;
9997;SDS011;5038;53.064;8.624;2023-04-01T06:05:18;9.70;;;8.80;;
9997;SDS011;5038;53.064;8.624;2023-04-01T06:07:48;11.57;;;10.47;;
9997;SDS011;5038;53.064;8.624;2023-04-01T06:10:18;11.17;;;9.73;;
9997;SDS011;5038;53.064;8.624;2023-04-01T06:12:51;11.37;;;10.20;;
9997;SDS011;5038;53.064;8.624;2023-04-01T06:15:33;12.43;;;11.20;;
9997;SDS011;5038;53.064;8.624;2023-04-01T06:21:09;9.57;;;8.60;;
9997;SDS011;5038;53.064;8.624;2023-04-01T06:23:59;9.80;;;8.90;;
9997;SDS011;5038;53.064;8.624;2023-04-01T06:26:40;10.27;;;9.20;;
9997;SDS011;5038;53.064;8.624;2023-04-01T06:29:20;10.27;;;9.37;;
9997;SDS011;5038;53.064;8.624;2023-04-01T06:32:02;9.80;;;8.80;;
9997;SDS011;5038;53.064;8.624;2023-04-01T06:34:50;10.03;;;9.00;;
9997;SDS011;5038;53.064;8.624;2023-04-01T06:37:40;10.37;;;9.27;;
9997;SDS011;5038;53.064;8.624;2023-04-01T06:40:26;10.03;;;9.00;;
9997;SDS011;5038;53.064;8.624;2023-04-01T06:43:12;11.23;;;10.00;;
9997;SDS011;5038;53.064;8.624;2023-04-01T06:46:06;10.10;;;9.13;;
9997;SDS011;5038;53.064;8.624;2023-04-01T06:49:06;10.10;;;9.10;;
9997;SDS011;5038;53.064;8.624;2023-04-01T06:52:06;11.63;;;10.40;;
9997;SDS011;5038;53.064;8.624;2023-04-01T06:55:04;14.33;;;13.03;;
9997;SDS011;5038;53.064;8.624;2023-04-01T06:58:10;12.00;;;10.80;;
9997;SDS011;5038;53.064;8.624;2023-04-01T07:00:46;11.10;;;9.90;;
9997;SDS011;5038;53.064;8.624;2023-04-01T07:03:20;9.40;;;8.40;;
9997;SDS011;5038;53.064;8.624;2023-04-01T07:05:51;9.93;;;9.03;;
9997;SDS011;5038;53.064;8.624;2023-04-01T07:08:22;9.90;;;8.80;;
9997;SDS011;5038;53.064;8.624;2023-04-01T07:10:56;9.00;;;8.10;;
9997;SDS011;5038;53.064;8.624;2023-04-01T07:14:04;10.00;;;9.10;;
9997;SDS011;5038;53.064;8.624;2023-04-01T07:16:38;11.10;;;8.80;;
9997;SDS011;5038;53.064;8.624;2023-04-01T07:19:12;8.47;;;7.67;;
9997;SDS011;5038;53.064;8.624;2023-04-01T07:22:02;8.93;;;7.87;;
9997;SDS011;5038;53.064;8.624;2023-04-01T07:24:52;7.93;;;7.10;;
9997;SDS011;5038;53.064;8.624;2023-04-01T07:27:25;9.00;;;7.60;;
9997;SDS011;5038;53.064;8.624;2023-04-01T07:29:55;8.63;;;7.80;;
9997;SDS011;5038;53.064;8.624;2023-04-01T07:32:27;8.47;;;7.63;;
9997;SDS011;5038;53.064;8.624;2023-04-01T07:35:07;7.77;;;7.03;;
9997;SDS011;5038;53.064;8.624;2023-04-01T07:37:46;8.40;;;6.93;;
9997;SDS011;5038;53.064;8.624;2023-04-01T07:40:26;7.60;;;6.83;;
9997;SDS011;5038;53.064;8.624;2023-04-01T07:43:06;9.17;;;7.07;;
9997;SDS011;5038;53.064;8.624;2023-04-01T07:45:53;9.20;;;8.30;;
9997;SDS011;5038;53.064;8.624;2023-04-01T07:48:28;9.53;;;8.63;;
9997;SDS011;5038;53.064;8.624;2023-04-01T07:51:06;8.90;;;6.63;;
9997;SDS011;5038;53.064;8.624;2023-04-01T07:53:38;7.60;;;6.80;;
9997;SDS011;5038;53.064;8.624;2023-04-01T07:56:15;8.20;;;7.40;;
9997;SDS011;5038;53.064;8.624;2023-04-01T07:58:52;8.00;;;7.20;;
9997;SDS011;5038;53.064;8.624;2023-04-01T08:01:49;6.90;;;6.17;;
9997;SDS011;5038;53.064;8.624;2023-04-01T08:04:25;7.30;;;6.63;;
9997;SDS011;5038;53.064;8.624;2023-04-01T08:07:03;7.70;;;7.00;;
9997;SDS011;5038;53.064;8.624;2023-04-01T08:09:44;8.30;;;7.50;;
9997;SDS011;5038;53.064;8.624;2023-04-01T08:12:43;9.43;;;8.43;;
9997;SDS011;5038;53.064;8.624;2023-04-01T08:15:44;8.00;;;7.30;;
9997;SDS011;5038;53.064;8.624;2023-04-01T08:18:32;8.50;;;7.60;;
9997;SDS011;5038;53.064;8.624;2023-04-01T08:21:07;7.50;;;6.80;;
9997;SDS011;5038;53.064;8.624;2023-04-01T08:23:41;7.33;;;6.63;;
9997;SDS011;5038;53.064;8.624;2023-04-01T08:26:16;6.73;;;6.13;;
9997;SDS011;5038;53.064;8.624;2023-04-01T08:28:51;7.17;;;6.40;;
9997;SDS011;5038;53.064;8.624;2023-04-01T08:31:26;7.43;;;6.33;;
9997;SDS011;5038;53.064;8.624;2023-04-01T08:34:01;6.60;;;6.00;;
9997;SDS011;5038;53.064;8.624;2023-04-01T08:36:33;7.07;;;6.37;;
9997;SDS011;5038;53.064;8.624;2023-04-01T08:52:25;5.33;;;4.83;;
9997;SDS011;5038;53.064;8.624;2023-04-01T08:55:19;6.33;;;5.60;;
9997;SDS011;5038;53.064;8.624;2023-04-01T09:01:36;5.63;;;5.10;;
9997;SDS011;5038;53.064;8.624;2023-04-01T09:04:42;5.53;;;5.03;;
9997;SDS011;5038;53.064;8.624;2023-04-01T09:07:37;5.03;;;4.53;;
9997;SDS011;5038;53.064;8.624;2023-04-01T09:10:27;5.27;;;4.77;;
9997;SDS011;5038;53.064;8.624;2023-04-01T09:13:44;7.43;;;5.50;;
9997;SDS011;5038;53.064;8.624;2023-04-01T09:16:41;6.37;;;4.50;;
9997;SDS011;5038;53.064;8.624;2023-04-01T09:19:32;5.27;;;4.30;;
9997;SDS011;5038;53.064;8.624;2023-04-01T09:22:16;4.67;;;3.63;;
9997;SDS011;5038;53.064;8.624;2023-04-01T09:28:05;6.83;;;4.67;;
9997;SDS011;5038;53.064;8.624;2023-04-01T09:30:48;4.50;;;4.10;;
9997;SDS011;5038;53.064;8.624;2023-04-01T09:34:12;5.37;;;4.20;;
9997;SDS011;5038;53.064;8.624;2023-04-01T09:37:02;4.90;;;3.97;;
9997;SDS011;5038;53.064;8.624;2023-04-01T09:39:54;6.00;;;4.70;;
9997;SDS011;5038;53.064;8.624;2023-04-01T09:42:42;4.27;;;3.53;;
9997;SDS011;5038;53.064;8.624;2023-04-01T09:45:37;3.97;;;3.40;;
9997;SDS011;5038;53.064;8.624;2023-04-01T09:48:16;5.80;;;4.90;;
9997;SDS011;5038;53.064;8.624;2023-04-01T09:51:10;4.80;;;4.30;;
9997;SDS011;5038;53.064;8.624;2023-04-01T09:53:56;5.23;;;4.43;;
9997;SDS011;5038;53.064;8.624;2023-04-01T10:00:15;6.17;;;5.23;;
9997;SDS011;5038;53.064;8.624;2023-04-01T10:09:52;6.00;;;5.50;;
9997;SDS011;5038;53.064;8.624;2023-04-01T10:13:03;7.60;;;4.30;;
9997;SDS011;5038;53.064;8.624;2023-04-01T10:16:09;5.97;;;4.13;;
9997;SDS011;5038;53.064;8.624;2023-04-01T10:18:56;4.37;;;3.77;;
9997;SDS011;5038;53.064;8.624;2023-04-01T10:21:55;4.03;;;2.90;;
9997;SDS011;5038;53.064;8.624;2023-04-01T10:24:54;3.50;;;3.00;;
9997;SDS011;5038;53.064;8.624;2023-04-01T10:28:08;3.40;;;2.40;;
9997;SDS011;5038;53.064;8.624;2023-04-01T10:31:24;3.30;;;1.50;;
9997;SDS011;5038;53.064;8.624;2023-04-01T10:34:35;2.73;;;1.00;;
9997;SDS011;5038;53.064;8.624;2023-04-01T10:37:27;2.40;;;0.80;;
9997;SDS011;5038;53.064;8.624;2023-04-01T10:40:16;2.50;;;0.83;;
9997;SDS011;5038;53.064;8.624;2023-04-01T10:43:52;2.30;;;0.60;;
9997;SDS011;5038;53.064;8.624;2023-04-01T10:46:46;2.80;;;1.17;;
9997;SDS011;5038;53.064;8.624;2023-04-01T10:56:08;2.50;;;0.80;;
9997;SDS011;5038;53.064;8.624;2023-04-01T11:19:16;3.00;;;1.30;;
9997;SDS011;5038;53.064;8.624;2023-04-01T11:22:26;3.50;;;2.50;;
9997;SDS011;5038;53.064;8.624;2023-04-01T11:28:27;3.10;;;1.70;;
9997;SDS011;5038;53.064;8.624;2023-04-01T11:34:04;2.87;;;1.50;;
9997;SDS011;5038;53.064;8.624;2023-04-01T11:36:43;3.07;;;2.03;;
9997;SDS011;5038;53.064;8.624;2023-04-01T11:39:27;3.83;;;2.40;;
9997;SDS011;5038;53.064;8.624;2023-04-01T11:42:32;3.80;;;2.90;;
9997;SDS011;5038;53.064;8.624;2023-04-01T11:45:29;3.63;;;2.80;;
9997;SDS011;5038;53.064;8.624;2023-04-01T11:51:25;6.83;;;6.23;;
9997;SDS011;5038;53.064;8.624;2023-04-01T11:54:12;4.97;;;3.83;;
9997;SDS011;5038;53.064;8.624;2023-04-01T11:56:57;4.43;;;3.60;;
9997;SDS011;5038;53.064;8.624;2023-04-01T11:59:38;3.33;;;2.53;;
9997;SDS011;5038;53.064;8.624;2023-04-01T12:02:25;3.60;;;2.63;;
9997;SDS011;5038;53.064;8.624;2023-04-01T12:05:21;3.97;;;2.90;;
9997;SDS011;5038;53.064;8.624;2023-04-01T12:08:07;3.87;;;2.60;;
9997;SDS011;5038;53.064;8.624;2023-04-01T12:10:45;3.97;;;2.87;;
9997;SDS011;5038;53.064;8.624;2023-04-01T12:13:24;3.20;;;2.03;;
9997;SDS011;5038;53.064;8.624;2023-04-01T12:16:04;3.60;;;2.30;;
9997;SDS011;5038;53.064;8.624;2023-04-01T12:18:44;3.93;;;2.40;;
9997;SDS011;5038;53.064;8.624;2023-04-01T12:21:22;4.20;;;2.80;;
9997;SDS011;5038;53.064;8.624;2023-04-01T12:24:07;4.20;;;2.40;;
9997;SDS011;5038;53.064;8.624;2023-04-01T12:26:55;6.00;;;2.50;;
9997;SDS011;5038;53.064;8.624;2023-04-01T12:29:46;4.37;;;2.53;;
9997;SDS011;5038;53.064;8.624;2023-04-01T12:32:24;3.30;;;2.07;;
9997;SDS011;5038;53.064;8.624;2023-04-01T12:35:10;3.53;;;2.80;;
9997;SDS011;5038;53.064;8.624;2023-04-01T12:37:55;3.23;;;2.20;;
9997;SDS011;5038;53.064;8.624;2023-04-01T12:40:39;3.07;;;1.83;;
9997;SDS011;5038;53.064;8.624;2023-04-01T12:46:29;3.17;;;2.20;;
9997;SDS011;5038;53.064;8.624;2023-04-01T12:49:13;3.70;;;2.97;;
9997;SDS011;5038;53.064;8.624;2023-04-01T12:52:07;4.67;;;3.37;;
9997;SDS011;5038;53.064;8.624;2023-04-01T12:54:48;6.17;;;3.50;;
9997;SDS011;5038;53.064;8.624;2023-04-01T12:57:45;4.20;;;3.20;;
9997;SDS011;5038;53.064;8.624;2023-04-01T13:00:46;4.97;;;2.93;;
9997;SDS011;5038;53.064;8.624;2023-04-01T13:03:32;3.60;;;2.60;;
9997;SDS011;5038;53.064;8.624;2023-04-01T13:09:09;3.70;;;1.90;;
9997;SDS011;5038;53.064;8.624;2023-04-01T13:11:49;3.20;;;1.60;;
9997;SDS011;5038;53.064;8.624;2023-04-01T13:17:50;4.40;;;2.10;;
9997;SDS011;5038;53.064;8.624;2023-04-01T13:20:24;3.60;;;2.63;;
9997;SDS011;5038;53.064;8.624;2023-04-01T13:23:05;3.03;;;1.40;;
9997;SDS011;5038;53.064;8.624;2023-04-01T13:25:43;3.83;;;1.93;;
9997;SDS011;5038;53.064;8.624;2023-04-01T13:28:37;3.10;;;1.60;;
9997;SDS011;5038;53.064;8.624;2023-04-01T13:31:09;2.90;;;1.40;;
9997;SDS011;5038;53.064;8.624;2023-04-01T13:33:47;3.10;;;1.60;;
9997;SDS011;5038;53.064;8.624;2023-04-01T13:36:26;3.87;;;1.90;;
9997;SDS011;5038;53.064;8.624;2023-04-01T13:42:05;2.80;;;1.50;;
9997;SDS011;5038;53.064;8.624;2023-04-01T13:44:43;3.63;;;1.43;;
9997;SDS011;5038;53.064;8.624;2023-04-01T13:47:34;3.30;;;1.67;;
9997;SDS011;5038;53.064;8.624;2023-04-01T13:50:26;3.37;;;1.47;;
9997;SDS011;5038;53.064;8.624;2023-04-01T13:53:27;3.30;;;1.70;;
9997;SDS011;5038;53.064;8.624;2023-04-01T13:56:20;4.00;;;2.00;;
9997;SDS011;5038;53.064;8.624;2023-04-01T13:59:10;3.43;;;1.63;;
9997;SDS011;5038;53.064;8.624;2023-04-01T14:01:55;3.30;;;1.70;;
9997;SDS011;5038;53.064;8.624;2023-04-01T14:07:35;3.13;;;1.70;;
9997;SDS011;5038;53.064;8.624;2023-04-01T14:10:19;3.10;;;1.53;;
9997;SDS011;5038;53.064;8.624;2023-04-01T14:12:56;3.03;;;1.60;;
9997;SDS011;5038;53.064;8.624;2023-04-01T14:15:53;3.60;;;2.10;;
9997;SDS011;5038;53.064;8.624;2023-04-01T14:18:45;4.60;;;2.50;;
9997;SDS011;5038;53.064;8.624;2023-04-01T14:21:28;4.40;;;2.80;;
9997;SDS011;5038;53.064;8.624;2023-04-01T14:24:20;3.47;;;1.70;;
9997;SDS011;5038;53.064;8.624;2023-04-01T14:27:12;4.17;;;2.37;;
9997;SDS011;5038;53.064;8.624;2023-04-01T14:29:57;4.03;;;2.70;;
9997;SDS011;5038;53.064;8.624;2023-04-01T14:32:37;3.40;;;2.00;;
9997;SDS011;5038;53.064;8.624;2023-04-01T14:38:08;3.77;;;2.20;;
9997;SDS011;5038;53.064;8.624;2023-04-01T14:40:51;3.57;;;2.40;;
9997;SDS011;5038;53.064;8.624;2023-04-01T14:49:51;5.83;;;2.80;;
9997;SDS011;5038;53.064;8.624;2023-04-01T14:52:31;5.03;;;3.47;;
9997;SDS011;5038;53.064;8.624;2023-04-01T14:55:02;4.30;;;3.23;;
9997;SDS011;5038;53.064;8.624;2023-04-01T14:57:57;5.23;;;3.83;;
9997;SDS011;5038;53.064;8.624;2023-04-01T15:00:27;5.00;;;3.43;;
9997;SDS011;5038;53.064;8.624;2023-04-01T15:03:07;4.43;;;3.73;;
9997;SDS011;5038;53.064;8.624;2023-04-01T15:05:45;5.13;;;3.90;;
9997;SDS011;5038;53.064;8.624;2023-04-01T15:08:18;5.87;;;3.73;;
9997;SDS011;5038;53.064;8.624;2023-04-01T15:14:01;5.50;;;4.07;;
9997;SDS011;5038;53.064;8.624;2023-04-01T15:16:40;5.43;;;3.40;;
9997;SDS011;5038;53.064;8.624;2023-04-01T15:19:20;4.47;;;3.80;;
9997;SDS011;5038;53.064;8.624;2023-04-01T15:25:13;6.30;;;4.47;;
9997;SDS011;5038;53.064;8.624;2023-04-01T15:27:55;5.93;;;4.60;;
9997;SDS011;5038;53.064;8.624;2023-04-01T15:30:35;5.40;;;4.67;;
9997;SDS011;5038;53.064;8.624;2023-04-01T15:33:15;7.40;;;5.10;;
9997;SDS011;5038;53.064;8.624;2023-04-01T15:35:51;6.53;;;4.40;;
9997;SDS011;5038;53.064;8.624;2023-04-01T15:38:30;6.33;;;4.30;;
9997;SDS011;5038;53.064;8.624;2023-04-01T15:41:13;8.03;;;4.60;;
9997;SDS011;5038;53.064;8.624;2023-04-01T15:43:53;5.80;;;4.32;;
9997;SDS011;5038;53.064;8.624;2023-04-01T15:46:29;6.30;;;4.60;;
9997;SDS011;5038;53.064;8.624;2023-04-01T15:49:10;5.43;;;4.43;;
9997;SDS011;5038;53.064;8.624;2023-04-01T15:57:54;6.37;;;4.47;;
9997;SDS011;5038;53.064;8.624;2023-04-01T16:00:41;5.77;;;4.60;;
9997;SDS011;5038;53.064;8.624;2023-04-01T16:03:17;5.30;;;4.60;;
9997;SDS011;5038;53.064;8.624;2023-04-01T16:05:55;4.77;;;4.20;;
9997;SDS011;5038;53.064;8.624;2023-04-01T16:08:46;6.30;;;4.80;;
9997;SDS011;5038;53.064;8.624;2023-04-01T16:11:46;6.77;;;4.40;;
9997;SDS011;5038;53.064;8.624;2023-04-01T16:14:26;4.83;;;3.70;;
9997;SDS011;5038;53.064;8.624;2023-04-01T16:17:11;6.50;;;4.53;;
9997;SDS011;5038;53.064;8.624;2023-04-01T16:19:51;5.33;;;4.27;;
9997;SDS011;5038;53.064;8.624;2023-04-01T16:22:24;6.70;;;4.13;;
9997;SDS011;5038;53.064;8.624;2023-04-01T16:25:01;6.03;;;4.53;;
9997;SDS011;5038;53.064;8.624;2023-04-01T16:27:46;7.90;;;5.10;;
9997;SDS011;5038;53.064;8.624;2023-04-01T16:30:25;5.13;;;4.40;;
9997;SDS011;5038;53.064;8.624;2023-04-01T16:33:01;5.80;;;4.27;;
9997;SDS011;5038;53.064;8.624;2023-04-01T16:35:35;5.70;;;4.53;;
9997;SDS011;5038;53.064;8.624;2023-04-01T16:38:13;6.57;;;3.87;;
9997;SDS011;5038;53.064;8.624;2023-04-01T16:40:47;6.10;;;3.77;;
9997;SDS011;5038;53.064;8.624;2023-04-01T16:43:27;5.97;;;5.20;;
9997;SDS011;5038;53.064;8.624;2023-04-01T16:49:03;6.87;;;5.10;;
9997;SDS011;5038;53.064;8.624;2023-04-01T16:51:52;5.77;;;4.30;;
9997;SDS011;5038;53.064;8.624;2023-04-01T16:54:27;5.97;;;4.30;;
9997;SDS011;5038;53.064;8.624;2023-04-01T16:57:02;6.57;;;4.70;;
9997;SDS011;5038;53.064;8.624;2023-04-01T16:59:44;5.10;;;3.90;;
9997;SDS011;5038;53.064;8.624;2023-04-01T17:02:17;6.50;;;4.43;;
9997;SDS011;5038;53.064;8.624;2023-04-01T17:04:53;4.83;;;4.33;;
9997;SDS011;5038;53.064;8.624;2023-04-01T17:07:28;5.57;;;4.10;;
9997;SDS011;5038;53.064;8.624;2023-04-01T17:10:11;6.10;;;4.70;;
9997;SDS011;5038;53.064;8.624;2023-04-01T17:12:55;5.20;;;3.90;;
9997;SDS011;5038;53.064;8.624;2023-04-01T17:15:38;6.67;;;5.00;;
9997;SDS011;5038;53.064;8.624;2023-04-01T17:18:15;6.50;;;5.00;;
9997;SDS011;5038;53.064;8.624;2023-04-01T17:20:53;6.17;;;5.10;;
9997;SDS011;5038;53.064;8.624;2023-04-01T17:23:25;7.30;;;5.83;;
9997;SDS011;5038;53.064;8.624;2023-04-01T17:26:02;7.20;;;6.10;;
9997;SDS011;5038;53.064;8.624;2023-04-01T17:28:42;5.50;;;5.00;;
9997;SDS011;5038;53.064;8.624;2023-04-01T17:31:30;6.63;;;5.27;;
9997;SDS011;5038;53.064;8.624;2023-04-01T17:34:16;6.10;;;5.30;;
9997;SDS011;5038;53.064;8.624;2023-04-01T17:37:04;6.20;;;5.33;;
9997;SDS011;5038;53.064;8.624;2023-04-01T17:39:46;8.17;;;5.60;;
9997;SDS011;5038;53.064;8.624;2023-04-01T17:42:30;6.03;;;5.07;;
9997;SDS011;5038;53.064;8.624;2023-04-01T17:45:04;6.67;;;5.33;;
9997;SDS011;5038;53.064;8.624;2023-04-01T17:47:41;7.00;;;5.20;;
9997;SDS011;5038;53.064;8.624;2023-04-01T17:50:23;7.20;;;6.00;;
9997;SDS011;5038;53.064;8.624;2023-04-01T17:52:59;6.90;;;6.00;;
9997;SDS011;5038;53.064;8.624;2023-04-01T17:55:53;7.90;;;6.50;;
9997;SDS011;5038;53.064;8.624;2023-04-01T17:58:32;8.60;;;6.73;;
9997;SDS011;5038;53.064;8.624;2023-04-01T18:01:18;6.90;;;5.80;;
9997;SDS011;5038;53.064;8.624;2023-04-01T18:04:05;8.40;;;7.20;;
9997;SDS011;5038;53.064;8.624;2023-04-01T18:06:45;6.73;;;5.60;;
9997;SDS011;5038;53.064;8.624;2023-04-01T18:09:38;8.33;;;6.30;;